sensor_id;sensor_type;location;lat;lon;timestamp;pressure;altitude;pressure_sealevel;temperature;humidity
23733;BME280;12047;53.450;-2.286;2022-12-04T00:02:08;101762.13;;;9.88;100.00
23733;BME280;12047;53.450;-2.286;2022-12-04T00:07:27;101764.59;;;10.15;100.00
23733;BME280;12047;53.450;-2.286;2022-12-04T00:12:28;101758.31;;;9.79;100.00
23733;BME280;12047;53.450;-2.286;2022-12-04T00:17:28;101756.00;;;9.49;100.00
23733;BME280;12047;53.450;-2.286;2022-12-04T00:22:35;101747.19;;;9.87;100.00
23733;BME280;12047;53.450;-2.286;2022-12-04T00:27:48;101740.84;;;9.77;100.00
23733;BME280;12047;53.450;-2.286;2022-12-04T00:32:49;101739.50;;;10.57;100.00
23733;BME280;12047;53.450;-2.286;2022-12-04T00:37:53;101728.06;;;10.20;100.00
23733;BME280;12047;53.450;-2.286;2022-12-04T00:42:54;101729.78;;;10.45;100.00
23733;BME280;12047;53.450;-2.286;2022-12-04T00:47:55;101738.31;;;9.88;100.00
23733;BME280;12047;53.450;-2.286;2022-12-04T00:53:05;101741.19;;;10.58;100.00
23733;BME280;12047;53.450;-2.286;2022-12-04T00:58:06;101737.19;;;10.52;100.00
23733;BME280;12047;53.450;-2.286;2022-12-04T01:03:10;101737.03;;;11.02;100.00
23733;BME280;12047;53.450;-2.286;2022-12-04T01:08:11;101724.59;;;11.02;100.00
23733;BME280;12047;53.450;-2.286;2022-12-04T01:13:12;101725.91;;;10.38;100.00
23733;BME280;12047;53.450;-2.286;2022-12-04T01:18:13;101726.06;;;10.47;100.00
23733;BME280;12047;53.450;-2.286;2022-12-04T01:23:17;101723.53;;;10.46;100.00
23733;BME280;12047;53.450;-2.286;2022-12-04T01:28:19;101725.09;;;9.63;100.00
23733;BME280;12047;53.450;-2.286;2022-12-04T01:33:35;101708.78;;;9.43;100.00
23733;BME280;12047;53.450;-2.286;2022-12-04T01:38:43;101714.09;;;9.31;100.00
23733;BME280;12047;53.450;-2.286;2022-12-04T01:44:06;101711.34;;;9.58;100.00
23733;BME280;12047;53.450;-2.286;2022-12-04T01:49:47;101717.59;;;9.31;100.00
23733;BME280;12047;53.450;-2.286;2022-12-04T01:54:59;101705.69;;;9.87;100.00
23733;BME280;12047;53.450;-2.286;2022-12-04T02:00:10;101702.66;;;10.05;100.00
23733;BME280;12047;53.450;-2.286;2022-12-04T02:05:32;101705.19;;;9.44;100.00
23733;BME280;12047;53.450;-2.286;2022-12-04T02:11:02;101709.88;;;9.90;100.00
23733;BME280;12047;53.450;-2.286;2022-12-04T02:16:13;101710.91;;;9.64;100.00
23733;BME280;12047;53.450;-2.286;2022-12-04T02:21:23;101708.38;;;9.62;100.00
23733;BME280;12047;53.450;-2.286;2022-12-04T02:26:59;101711.41;;;9.69;100.00
23733;BME280;12047;53.450;-2.286;2022-12-04T02:42:44;101718.13;;;9.36;100.00
23733;BME280;12047;53.450;-2.286;2022-12-04T02:48:11;101702.88;;;9.52;100.00
23733;BME280;12047;53.450;-2.286;2022-12-04T02:53:25;101698.63;;;9.63;100.00
23733;BME280;12047;53.450;-2.286;2022-12-04T03:04:42;101700.75;;;9.45;100.00
23733;BME280;12047;53.450;-2.286;2022-12-04T03:09:45;101693.56;;;9.09;100.00
23733;BME280;12047;53.450;-2.286;2022-12-04T03:14:54;101702.16;;;9.38;100.00
23733;BME280;12047;53.450;-2.286;2022-12-04T03:20:02;101696.84;;;9.50;100.00
23733;BME280;12047;53.450;-2.286;2022-12-04T03:25:06;101691.19;;;10.17;100.00
23733;BME280;12047;53.450;-2.286;2022-12-04T03:30:09;101691.66;;;9.62;100.00
23733;BME280;12047;53.450;-2.286;2022-12-04T03:35:18;101693.09;;;10.15;100.00
23733;BME280;12047;53.450;-2.286;2022-12-04T03:40:36;101688.75;;;9.77;100.00
23733;BME280;12047;53.450;-2.286;2022-12-04T03:45:46;101689.97;;;9.48;100.00
23733;BME280;12047;53.450;-2.286;2022-12-04T03:51:05;101686.16;;;9.14;100.00
23733;BME280;12047;53.450;-2.286;2022-12-04T03:56:24;101685.47;;;9.86;100.00
23733;BME280;12047;53.450;-2.286;2022-12-04T04:01:44;101680.16;;;9.86;100.00
23733;BME280;12047;53.450;-2.286;2022-12-04T04:07:25;101673.72;;;9.65;100.00
23733;BME280;12047;53.450;-2.286;2022-12-04T04:12:31;101667.09;;;9.60;100.00
23733;BME280;12047;53.450;-2.286;2022-12-04T04:17:40;101667.19;;;9.45;100.00
23733;BME280;12047;53.450;-2.286;2022-12-04T04:23:02;101668.69;;;9.49;100.00
23733;BME280;12047;53.450;-2.286;2022-12-04T04:28:28;101686.78;;;9.43;100.00
23733;BME280;12047;53.450;-2.286;2022-12-04T04:33:31;101682.75;;;9.63;100.00
23733;BME280;12047;53.450;-2.286;2022-12-04T04:38:45;101682.56;;;9.53;100.00
23733;BME280;12047;53.450;-2.286;2022-12-04T04:43:58;101692.06;;;10.05;100.00
23733;BME280;12047;53.450;-2.286;2022-12-04T04:49:07;101692.88;;;10.31;100.00
23733;BME280;12047;53.450;-2.286;2022-12-04T04:54:12;101686.03;;;10.63;100.00
23733;BME280;12047;53.450;-2.286;2022-12-04T04:59:15;101677.47;;;11.06;100.00
23733;BME280;12047;53.450;-2.286;2022-12-04T05:04:16;101679.53;;;10.67;100.00
23733;BME280;12047;53.450;-2.286;2022-12-04T05:09:16;101683.75;;;10.35;100.00
23733;BME280;12047;53.450;-2.286;2022-12-04T05:14:17;101677.31;;;9.89;100.00
23733;BME280;12047;53.450;-2.286;2022-12-04T05:19:17;101686.31;;;9.74;100.00
23733;BME280;12047;53.450;-2.286;2022-12-04T05:24:47;101678.25;;;10.25;100.00
23733;BME280;12047;53.450;-2.286;2022-12-04T05:29:48;101678.72;;;9.70;100.00
23733;BME280;12047;53.450;-2.286;2022-12-04T05:34:52;101677.78;;;9.45;100.00
23733;BME280;12047;53.450;-2.286;2022-12-04T05:39:53;101675.22;;;10.06;100.00
23733;BME280;12047;53.450;-2.286;2022-12-04T05:44:53;101673.03;;;10.36;100.00
23733;BME280;12047;53.450;-2.286;2022-12-04T05:49:54;101671.84;;;10.04;100.00
23733;BME280;12047;53.450;-2.286;2022-12-04T05:55:09;101674.84;;;10.36;100.00
23733;BME280;12047;53.450;-2.286;2022-12-04T06:00:22;101668.53;;;9.76;100.00
23733;BME280;12047;53.450;-2.286;2022-12-04T06:05:23;101673.31;;;10.90;100.00
23733;BME280;12047;53.450;-2.286;2022-12-04T06:10:24;101666.28;;;11.47;100.00
23733;BME280;12047;53.450;-2.286;2022-12-04T06:15:24;101671.78;;;10.64;100.00
23733;BME280;12047;53.450;-2.286;2022-12-04T06:20:26;101665.34;;;11.59;100.00
23733;BME280;12047;53.450;-2.286;2022-12-04T06:25:27;101653.97;;;11.68;100.00
23733;BME280;12047;53.450;-2.286;2022-12-04T06:30:28;101655.56;;;11.59;100.00
23733;BME280;12047;53.450;-2.286;2022-12-04T06:35:29;101655.56;;;11.59;100.00
23733;BME280;12047;53.450;-2.286;2022-12-04T06:40:30;101655.31;;;11.40;100.00
23733;BME280;12047;53.450;-2.286;2022-12-04T06:45:30;101649.41;;;11.59;100.00
23733;BME280;12047;53.450;-2.286;2022-12-04T06:50:31;101650.09;;;11.95;100.00
23733;BME280;12047;53.450;-2.286;2022-12-04T06:55:34;101660.09;;;11.02;100.00
23733;BME280;12047;53.450;-2.286;2022-12-04T07:00:35;101652.19;;;11.35;100.00
23733;BME280;12047;53.450;-2.286;2022-12-04T07:05:36;101653.50;;;11.18;100.00
23733;BME280;12047;53.450;-2.286;2022-12-04T07:10:39;101659.38;;;10.65;100.00
23733;BME280;12047;53.450;-2.286;2022-12-04T07:15:42;101665.69;;;10.64;100.00
23733;BME280;12047;53.450;-2.286;2022-12-04T07:20:43;101670.13;;;10.63;100.00
23733;BME280;12047;53.450;-2.286;2022-12-04T07:25:44;101664.88;;;10.39;100.00
23733;BME280;12047;53.450;-2.286;2022-12-04T07:30:45;101671.50;;;10.80;100.00
23733;BME280;12047;53.450;-2.286;2022-12-04T07:35:54;101680.03;;;10.37;100.00
23733;BME280;12047;53.450;-2.286;2022-12-04T07:40:58;101674.84;;;10.36;100.00
23733;BME280;12047;53.450;-2.286;2022-12-04T07:46:20;101677.38;;;10.72;100.00
23733;BME280;12047;53.450;-2.286;2022-12-04T07:51:24;101672.41;;;10.68;100.00
23733;BME280;12047;53.450;-2.286;2022-12-04T07:56:25;101682.91;;;11.04;100.00
23733;BME280;12047;53.450;-2.286;2022-12-04T08:01:31;101678.44;;;10.35;100.00
23733;BME280;12047;53.450;-2.286;2022-12-04T08:06:34;101678.09;;;10.63;100.00
23733;BME280;12047;53.450;-2.286;2022-12-04T08:11:34;101680.91;;;10.25;100.00
23733;BME280;12047;53.450;-2.286;2022-12-04T08:23:13;101678.22;;;10.73;100.00
23733;BME280;12047;53.450;-2.286;2022-12-04T08:59:55;101690.75;;;11.17;100.00
23733;BME280;12047;53.450;-2.286;2022-12-04T09:10:51;101694.03;;;11.43;100.00
23733;BME280;12047;53.450;-2.286;2022-12-04T09:32:57;101711.41;;;11.69;100.00
23733;BME280;12047;53.450;-2.286;2022-12-04T09:37:59;101716.84;;;11.34;100.00
23733;BME280;12047;53.450;-2.286;2022-12-04T10:27:47;101739.84;;;11.11;100.00
23733;BME280;12047;53.450;-2.286;2022-12-04T10:39:01;101746.66;;;11.38;100.00
23733;BME280;12047;53.450;-2.286;2022-12-04T10:44:12;101729.16;;;11.46;100.00
23733;BME280;12047;53.450;-2.286;2022-12-04T10:49:20;101720.97;;;11.61;100.00
23733;BME280;12047;53.450;-2.286;2022-12-04T10:59:59;101729.25;;;11.45;100.00
23733;BME280;12047;53.450;-2.286;2022-12-04T11:05:02;101727.75;;;11.87;100.00
23733;BME280;12047;53.450;-2.286;2022-12-04T11:10:20;101727.28;;;11.82;100.00
23733;BME280;12047;53.450;-2.286;2022-12-04T11:15:22;101725.94;;;11.76;100.00
23733;BME280;12047;53.450;-2.286;2022-12-04T11:20:25;101734.13;;;11.62;100.00
23733;BME280;12047;53.450;-2.286;2022-12-04T11:25:33;101733.00;;;11.31;100.00
23733;BME280;12047;53.450;-2.286;2022-12-04T11:30:36;101725.22;;;11.85;100.00
23733;BME280;12047;53.450;-2.286;2022-12-04T11:35:38;101722.31;;;12.11;100.00
23733;BME280;12047;53.450;-2.286;2022-12-04T11:40:49;101723.22;;;12.64;100.00
23733;BME280;12047;53.450;-2.286;2022-12-04T11:46:03;101717.25;;;12.51;100.00
23733;BME280;12047;53.450;-2.286;2022-12-04T12:07:22;101708.94;;;11.79;100.00
23733;BME280;12047;53.450;-2.286;2022-12-04T12:13:11;101700.47;;;11.63;100.00
23733;BME280;12047;53.450;-2.286;2022-12-04T12:23:52;101697.25;;;12.36;100.00
23733;BME280;12047;53.450;-2.286;2022-12-04T12:29:18;101698.19;;;12.67;100.00
23733;BME280;12047;53.450;-2.286;2022-12-04T12:39:39;101681.84;;;12.50;100.00
23733;BME280;12047;53.450;-2.286;2022-12-04T12:45:03;101693.44;;;12.49;100.00
23733;BME280;12047;53.450;-2.286;2022-12-04T12:50:20;101701.78;;;12.02;100.00
23733;BME280;12047;53.450;-2.286;2022-12-04T12:55:41;101686.91;;;12.10;100.00
23733;BME280;12047;53.450;-2.286;2022-12-04T13:00:53;101687.28;;;12.49;100.00
23733;BME280;12047;53.450;-2.286;2022-12-04T13:06:05;101689.69;;;12.52;100.00
23733;BME280;12047;53.450;-2.286;2022-12-04T13:16:22;101677.00;;;12.97;100.00
23733;BME280;12047;53.450;-2.286;2022-12-04T13:21:36;101681.41;;;12.66;100.00
23733;BME280;12047;53.450;-2.286;2022-12-04T13:32:36;101678.72;;;12.45;100.00
23733;BME280;12047;53.450;-2.286;2022-12-04T13:43:17;101681.13;;;13.22;100.00
23733;BME280;12047;53.450;-2.286;2022-12-04T13:48:30;101685.56;;;12.59;100.00
23733;BME280;12047;53.450;-2.286;2022-12-04T13:53:35;101688.53;;;12.66;100.00
23733;BME280;12047;53.450;-2.286;2022-12-04T13:58:39;101686.66;;;12.56;100.00
23733;BME280;12047;53.450;-2.286;2022-12-04T14:03:50;101672.97;;;12.29;100.00
23733;BME280;12047;53.450;-2.286;2022-12-04T14:08:59;101676.06;;;12.45;100.00
23733;BME280;12047;53.450;-2.286;2022-12-04T14:14:02;101683.44;;;12.42;100.00
23733;BME280;12047;53.450;-2.286;2022-12-04T14:19:03;101681.50;;;12.12;100.00
23733;BME280;12047;53.450;-2.286;2022-12-04T14:29:48;101688.13;;;12.06;100.00
23733;BME280;12047;53.450;-2.286;2022-12-04T14:34:51;101686.09;;;12.42;100.00
23733;BME280;12047;53.450;-2.286;2022-12-04T14:39:54;101681.66;;;12.63;100.00
23733;BME280;12047;53.450;-2.286;2022-12-04T14:44:57;101675.81;;;11.94;100.00
23733;BME280;12047;53.450;-2.286;2022-12-04T14:50:12;101678.84;;;12.44;100.00
23733;BME280;12047;53.450;-2.286;2022-12-04T14:55:45;101694.69;;;12.66;100.00
23733;BME280;12047;53.450;-2.286;2022-12-04T15:00:52;101691.53;;;12.93;100.00
23733;BME280;12047;53.450;-2.286;2022-12-04T15:06:10;101694.81;;;12.65;100.00
23733;BME280;12047;53.450;-2.286;2022-12-04T15:11:17;101695.84;;;12.84;100.00
23733;BME280;12047;53.450;-2.286;2022-12-04T15:16:36;101695.16;;;12.71;100.00
23733;BME280;12047;53.450;-2.286;2022-12-04T15:21:39;101688.38;;;13.20;100.00
23733;BME280;12047;53.450;-2.286;2022-12-04T15:26:44;101698.53;;;12.41;100.00
23733;BME280;12047;53.450;-2.286;2022-12-04T15:31:49;101705.19;;;12.68;100.00
23733;BME280;12047;53.450;-2.286;2022-12-04T15:37:05;101705.31;;;13.19;100.00
23733;BME280;12047;53.450;-2.286;2022-12-04T15:42:17;101723.22;;;12.32;100.00
23733;BME280;12047;53.450;-2.286;2022-12-04T15:47:23;101724.31;;;12.30;100.00
23733;BME280;12047;53.450;-2.286;2022-12-04T15:52:24;101717.63;;;12.99;100.00
23733;BME280;12047;53.450;-2.286;2022-12-04T15:57:36;101723.06;;;12.45;100.00
23733;BME280;12047;53.450;-2.286;2022-12-04T16:02:42;101732.72;;;12.78;100.00
23733;BME280;12047;53.450;-2.286;2022-12-04T16:07:55;101741.31;;;12.38;100.00
23733;BME280;12047;53.450;-2.286;2022-12-04T16:12:58;101741.13;;;12.94;100.00
23733;BME280;12047;53.450;-2.286;2022-12-04T16:17:59;101741.75;;;11.78;100.00
23733;BME280;12047;53.450;-2.286;2022-12-04T16:23:00;101737.97;;;12.14;100.00
23733;BME280;12047;53.450;-2.286;2022-12-04T16:28:01;101734.75;;;12.10;100.00
23733;BME280;12047;53.450;-2.286;2022-12-04T16:33:02;101743.78;;;12.19;100.00
23733;BME280;12047;53.450;-2.286;2022-12-04T16:38:03;101752.53;;;12.42;100.00
23733;BME280;12047;53.450;-2.286;2022-12-04T16:43:04;101756.75;;;12.44;100.00
23733;BME280;12047;53.450;-2.286;2022-12-04T16:48:04;101757.81;;;12.10;100.00
23733;BME280;12047;53.450;-2.286;2022-12-04T16:53:05;101766.97;;;12.06;100.00
23733;BME280;12047;53.450;-2.286;2022-12-04T16:58:06;101765.41;;;12.03;100.00
23733;BME280;12047;53.450;-2.286;2022-12-04T17:03:10;101771.41;;;11.72;100.00
23733;BME280;12047;53.450;-2.286;2022-12-04T17:08:14;101782.53;;;11.88;100.00
23733;BME280;12047;53.450;-2.286;2022-12-04T17:13:19;101783.41;;;12.00;100.00
23733;BME280;12047;53.450;-2.286;2022-12-04T17:18:20;101793.56;;;11.83;100.00
23733;BME280;12047;53.450;-2.286;2022-12-04T17:23:21;101804.72;;;11.76;100.00
23733;BME280;12047;53.450;-2.286;2022-12-04T17:28:21;101799.28;;;11.55;100.00
23733;BME280;12047;53.450;-2.286;2022-12-04T17:33:22;101798.69;;;11.74;100.00
23733;BME280;12047;53.450;-2.286;2022-12-04T17:38:23;101809.38;;;11.50;100.00
23733;BME280;12047;53.450;-2.286;2022-12-04T17:43:24;101813.66;;;11.75;100.00
23733;BME280;12047;53.450;-2.286;2022-12-04T17:48:25;101819.22;;;11.25;100.00
23733;BME280;12047;53.450;-2.286;2022-12-04T17:53:26;101815.63;;;12.17;100.00
23733;BME280;12047;53.450;-2.286;2022-12-04T17:58:28;101830.97;;;12.14;100.00
23733;BME280;12047;53.450;-2.286;2022-12-04T18:03:29;101841.88;;;11.65;100.00
23733;BME280;12047;53.450;-2.286;2022-12-04T18:08:30;101843.16;;;11.48;100.00
23733;BME280;12047;53.450;-2.286;2022-12-04T18:13:30;101847.00;;;11.79;100.00
23733;BME280;12047;53.450;-2.286;2022-12-04T18:18:31;101860.34;;;12.12;100.00
23733;BME280;12047;53.450;-2.286;2022-12-04T18:23:32;101866.22;;;11.93;100.00
23733;BME280;12047;53.450;-2.286;2022-12-04T18:28:33;101863.91;;;11.89;100.00
23733;BME280;12047;53.450;-2.286;2022-12-04T18:33:36;101861.13;;;11.90;100.00
23733;BME280;12047;53.450;-2.286;2022-12-04T18:38:36;101863.00;;;12.12;100.00
23733;BME280;12047;53.450;-2.286;2022-12-04T18:43:43;101877.22;;;11.65;100.00
23733;BME280;12047;53.450;-2.286;2022-12-04T18:48:44;101887.69;;;11.90;100.00
23733;BME280;12047;53.450;-2.286;2022-12-04T18:53:46;101886.72;;;10.98;100.00
23733;BME280;12047;53.450;-2.286;2022-12-04T18:58:47;101891.69;;;11.26;100.00
23733;BME280;12047;53.450;-2.286;2022-12-04T19:03:48;101897.44;;;11.20;100.00
23733;BME280;12047;53.450;-2.286;2022-12-04T19:08:48;101902.31;;;11.26;100.00
23733;BME280;12047;53.450;-2.286;2022-12-04T19:13:49;101900.56;;;11.38;100.00
23733;BME280;12047;53.450;-2.286;2022-12-04T19:18:50;101914.63;;;11.27;100.00
23733;BME280;12047;53.450;-2.286;2022-12-04T19:23:53;101920.31;;;11.10;100.00
23733;BME280;12047;53.450;-2.286;2022-12-04T19:28:59;101924.56;;;11.36;100.00
23733;BME280;12047;53.450;-2.286;2022-12-04T19:34:00;101924.97;;;10.82;100.00
23733;BME280;12047;53.450;-2.286;2022-12-04T19:39:03;101928.63;;;11.29;100.00
23733;BME280;12047;53.450;-2.286;2022-12-04T19:44:04;101936.59;;;11.29;100.00
23733;BME280;12047;53.450;-2.286;2022-12-04T19:49:05;101934.88;;;11.28;100.00
23733;BME280;12047;53.450;-2.286;2022-12-04T19:54:11;101936.59;;;11.29;100.00
23733;BME280;12047;53.450;-2.286;2022-12-04T19:59:12;101933.06;;;11.52;100.00
23733;BME280;12047;53.450;-2.286;2022-12-04T20:04:12;101932.97;;;11.30;100.00
23733;BME280;12047;53.450;-2.286;2022-12-04T20:09:17;101937.34;;;12.01;100.00
23733;BME280;12047;53.450;-2.286;2022-12-04T20:14:18;101944.25;;;12.04;100.00
23733;BME280;12047;53.450;-2.286;2022-12-04T20:19:20;101939.00;;;11.80;100.00
23733;BME280;12047;53.450;-2.286;2022-12-04T20:24:21;101938.66;;;11.61;100.00
23733;BME280;12047;53.450;-2.286;2022-12-04T20:29:22;101929.88;;;11.36;100.00
23733;BME280;12047;53.450;-2.286;2022-12-04T20:34:22;101933.59;;;11.92;100.00
23733;BME280;12047;53.450;-2.286;2022-12-04T20:39:23;101929.47;;;11.65;100.00
23733;BME280;12047;53.450;-2.286;2022-12-04T20:44:24;101933.50;;;12.16;100.00
23733;BME280;12047;53.450;-2.286;2022-12-04T20:49:24;101937.84;;;11.36;100.00
23733;BME280;12047;53.450;-2.286;2022-12-04T20:54:25;101939.53;;;11.72;100.00
23733;BME280;12047;53.450;-2.286;2022-12-04T20:59:25;101949.03;;;11.64;100.00
23733;BME280;12047;53.450;-2.286;2022-12-04T21:04:26;101953.34;;;12.23;100.00
23733;BME280;12047;53.450;-2.286;2022-12-04T21:09:27;101958.91;;;12.65;100.00
23733;BME280;12047;53.450;-2.286;2022-12-04T21:14:30;101960.72;;;12.42;100.00
23733;BME280;12047;53.450;-2.286;2022-12-04T21:19:49;101962.66;;;11.83;100.00
23733;BME280;12047;53.450;-2.286;2022-12-04T21:24:50;101961.88;;;12.05;100.00
23733;BME280;12047;53.450;-2.286;2022-12-04T21:29:51;101965.28;;;12.07;100.00
23733;BME280;12047;53.450;-2.286;2022-12-04T21:40:49;101968.84;;;11.95;100.00
23733;BME280;12047;53.450;-2.286;2022-12-04T21:45:58;101978.06;;;12.13;100.00
23733;BME280;12047;53.450;-2.286;2022-12-04T21:50:59;101983.72;;;12.77;100.00
23733;BME280;12047;53.450;-2.286;2022-12-04T21:56:00;101981.28;;;12.51;100.00
23733;BME280;12047;53.450;-2.286;2022-12-04T22:01:07;101977.88;;;11.81;100.00
23733;BME280;12047;53.450;-2.286;2022-12-04T22:06:08;101977.94;;;12.03;100.00
23733;BME280;12047;53.450;-2.286;2022-12-04T22:11:10;101980.28;;;11.60;100.00
23733;BME280;12047;53.450;-2.286;2022-12-04T22:16:16;101978.22;;;12.11;100.00
23733;BME280;12047;53.450;-2.286;2022-12-04T22:21:17;101991.66;;;11.62;100.00
23733;BME280;12047;53.450;-2.286;2022-12-04T22:26:17;101988.06;;;11.74;100.00
23733;BME280;12047;53.450;-2.286;2022-12-04T22:31:23;101998.75;;;12.09;100.00
23733;BME280;12047;53.450;-2.286;2022-12-04T22:36:29;101999.69;;;12.08;100.00
23733;BME280;12047;53.450;-2.286;2022-12-04T22:41:30;101997.72;;;11.99;100.00
23733;BME280;12047;53.450;-2.286;2022-12-04T22:46:31;102002.50;;;11.83;100.00
23733;BME280;12047;53.450;-2.286;2022-12-04T22:51:31;102005.69;;;11.75;100.00
23733;BME280;12047;53.450;-2.286;2022-12-04T22:56:33;102008.97;;;12.03;100.00
23733;BME280;12047;53.450;-2.286;2022-12-04T23:01:34;102012.69;;;12.35;100.00
23733;BME280;12047;53.450;-2.286;2022-12-04T23:06:35;102002.91;;;12.47;100.00
23733;BME280;12047;53.450;-2.286;2022-12-04T23:11:36;102003.53;;;12.04;100.00
23733;BME280;12047;53.450;-2.286;2022-12-04T23:16:37;102005.06;;;12.31;100.00
23733;BME280;12047;53.450;-2.286;2022-12-04T23:21:39;102009.44;;;12.65;100.00
23733;BME280;12047;53.450;-2.286;2022-12-04T23:26:42;102017.50;;;11.95;100.00
23733;BME280;12047;53.450;-2.286;2022-12-04T23:31:43;102016.66;;;11.95;100.00
23733;BME280;12047;53.450;-2.286;2022-12-04T23:36:44;102022.72;;;12.43;100.00
23733;BME280;12047;53.450;-2.286;2022-12-04T23:41:44;102023.91;;;12.27;100.00
23733;BME280;12047;53.450;-2.286;2022-12-04T23:46:45;102027.16;;;11.85;100.00
23733;BME280;12047;53.450;-2.286;2022-12-04T23:51:45;102028.25;;;12.29;100.00
23733;BME280;12047;53.450;-2.286;2022-12-04T23:56:46;102025.31;;;12.20;100.00
